KPNM

Details ICAO KPNM (PNM)
Name PRINCETON MUNI
Region United States
Timezone America/Chicago (UTC-6.0)
Plans Departing 2
Arriving 2
Stats Elevation 979 ft / 298 m (AMSL)
Location 45.559868° -93.608216°
Runways 1
Magnetic Variation 0.431° E
Sunrise 2017-12-17 13:50:53 UTC / 2017-12-17 07:50:53 Local
Sunset 2017-12-17 22:33:12 UTC / 2017-12-17 16:33:12 Local
Advertisement - Login to hide

Runways

ID Width Length Bearing (true) Bearing (mag) Surface Threshold Offset Overrun Length
15 75 ft / 23 m 3,901 ft / 1,189 m 157.94° 157.51° Asphalt 0 ft / 0 m 0 ft / 0 m
33 75 ft / 23 m 3,901 ft / 1,189 m 337.95° 337.52° Asphalt 0 ft / 0 m 0 ft / 0 m

Map

Weather


0- 5 10 15 20 25 30 35+ Temperature / ° C

Clouds and Precipitation
Forecast for 2017-12-17 12:00 UTC. Updated an hour ago

Ground ~20,000 ft ~40,000 ft Winds

METAR

KPNM 170835Z AUTO 00000KT 10SM CLR M08/M09 A3010 RMK AO2 TSNO

TAF

Not found

Frequencies

Recorded 119.02 MHz AWOS 3
Unicom 123.00 MHz CTAF/UNICOM
Warning: Do not use this data for real-world aviation or navigation. No guarantee of current accuracy is given.